createdAt,value
2018-06-15T00:02:26.693Z,70.10
2018-06-15T00:04:54.758Z,69.00
2018-06-15T00:07:22.290Z,69.00
2018-06-15T00:09:50.012Z,69.00
2018-06-15T00:12:17.700Z,69.00
2018-06-15T00:14:45.352Z,69.00
2018-06-15T00:17:13.024Z,69.10
2018-06-15T00:19:40.603Z,68.90
2018-06-15T00:22:08.284Z,69.30
2018-06-15T00:27:03.470Z,68.90
2018-06-15T00:29:31.044Z,68.90
2018-06-15T00:31:58.554Z,68.10
2018-06-15T00:34:26.132Z,66.60
2018-06-15T00:36:53.824Z,68.90
2018-06-15T00:39:21.463Z,68.60
2018-06-15T00:41:49.081Z,69.60
2018-06-15T00:44:16.879Z,68.80
2018-06-15T00:46:44.474Z,68.70
2018-06-15T00:49:12.073Z,68.70
2018-06-15T00:51:39.861Z,69.90
2018-06-15T00:54:07.531Z,70.40
2018-06-15T00:56:45.191Z,69.80
2018-06-15T00:59:12.918Z,70.10
2018-06-15T01:01:40.626Z,68.80
2018-06-15T01:04:08.230Z,69.70
2018-06-15T01:06:36.140Z,70.80
2018-06-15T01:09:06.354Z,70.00
2018-06-15T01:11:33.941Z,69.40
2018-06-15T01:14:01.672Z,69.00
2018-06-15T01:16:29.288Z,70.20
2018-06-15T01:18:56.962Z,68.80
2018-06-15T01:21:24.750Z,68.80
2018-06-15T01:23:52.596Z,68.80
2018-06-15T01:26:20.238Z,68.80
2018-06-15T01:28:47.884Z,69.40
2018-06-15T01:31:15.469Z,68.80
2018-06-15T01:33:43.170Z,68.80
2018-06-15T01:36:10.811Z,68.40
2018-06-15T01:38:38.585Z,68.70
2018-06-15T01:41:06.247Z,68.70
2018-06-15T01:43:33.862Z,68.10
2018-06-15T01:46:01.475Z,68.70
2018-06-15T01:48:29.062Z,68.70
2018-06-15T01:50:56.643Z,68.70
2018-06-15T01:53:24.378Z,68.60
2018-06-15T01:55:51.919Z,68.70
2018-06-15T01:58:19.575Z,68.70
2018-06-15T02:00:47.341Z,68.60
2018-06-15T02:03:15.118Z,68.60
2018-06-15T02:05:44.099Z,68.60
2018-06-15T02:08:11.779Z,68.60
2018-06-15T02:10:39.424Z,68.10
2018-06-15T02:13:07.122Z,68.00
2018-06-15T02:15:35.148Z,68.40
2018-06-15T02:18:02.746Z,67.10
2018-06-15T02:20:31.287Z,67.20
2018-06-15T02:22:59.290Z,68.40
2018-06-15T02:25:26.862Z,67.40
2018-06-15T02:27:54.435Z,67.30
2018-06-15T02:32:49.633Z,65.50
2018-06-15T02:35:17.165Z,65.60
2018-06-15T02:37:45.091Z,65.30
2018-06-15T02:40:12.694Z,65.90
2018-06-15T02:42:40.253Z,66.90
2018-06-15T02:45:07.815Z,65.80
2018-06-15T02:47:35.371Z,65.30
2018-06-15T02:50:03.144Z,66.20
2018-06-15T02:52:30.724Z,67.30
2018-06-15T02:54:58.408Z,67.50
2018-06-15T02:57:26.019Z,67.50
2018-06-15T02:59:53.686Z,68.40
2018-06-15T03:02:21.357Z,69.40
2018-06-15T03:04:48.869Z,69.00
2018-06-15T03:07:17.099Z,68.40
2018-06-15T03:09:44.694Z,68.40
2018-06-15T03:12:12.244Z,68.60
2018-06-15T03:14:39.842Z,68.40
2018-06-15T03:17:08.352Z,68.40
2018-06-15T03:19:36.119Z,68.30
2018-06-15T03:22:03.704Z,69.40
2018-06-15T03:24:31.729Z,69.50
2018-06-15T03:26:59.336Z,69.10
2018-06-15T03:29:26.940Z,69.30
2018-06-15T03:31:54.732Z,69.30
2018-06-15T03:34:22.548Z,69.00
2018-06-15T03:36:51.085Z,69.10
2018-06-15T03:39:18.647Z,69.20
2018-06-15T03:41:46.260Z,69.00
2018-06-15T03:44:13.882Z,69.10
2018-06-15T03:46:41.528Z,68.90
2018-06-15T03:49:09.106Z,69.40
2018-06-15T03:51:36.753Z,69.40
2018-06-15T03:56:32.090Z,69.20
2018-06-15T03:58:59.702Z,68.40
2018-06-15T04:01:27.458Z,69.50
2018-06-15T04:03:55.375Z,70.10
2018-06-15T04:06:23.036Z,70.10
2018-06-15T04:08:51.406Z,70.40
2018-06-15T04:11:19.660Z,70.30
2018-06-15T04:13:47.303Z,69.10
2018-06-15T04:16:14.918Z,69.30
2018-06-15T04:18:42.522Z,70.60
2018-06-15T04:21:10.149Z,70.20
2018-06-15T04:23:37.851Z,70.20
2018-06-15T04:26:05.857Z,70.00
2018-06-15T04:28:33.453Z,69.30
2018-06-15T04:31:01.131Z,69.30
2018-06-15T04:33:28.861Z,69.10
2018-06-15T04:35:56.523Z,68.50
2018-06-15T04:38:25.278Z,68.60
2018-06-15T04:40:52.909Z,68.60
2018-06-15T04:43:20.567Z,68.60
2018-06-15T04:45:48.084Z,68.60
2018-06-15T04:48:15.761Z,67.90
2018-06-15T04:50:43.431Z,67.60
2018-06-15T04:53:11.054Z,66.90
2018-06-15T04:55:39.198Z,65.90
2018-06-15T04:58:06.988Z,64.90
2018-06-15T05:00:34.961Z,64.50
2018-06-15T05:03:02.620Z,63.40
2018-06-15T05:05:30.281Z,63.90
2018-06-15T05:07:58.443Z,63.10
2018-06-15T05:10:26.261Z,62.80
2018-06-15T05:12:54.224Z,63.20
2018-06-15T05:17:49.543Z,64.50
2018-06-15T05:20:17.218Z,63.20
2018-06-15T05:22:44.895Z,63.10
2018-06-15T05:25:12.435Z,63.20
2018-06-15T05:27:41.231Z,63.10
2018-06-15T05:30:09.672Z,62.80
2018-06-15T05:32:37.796Z,62.20
2018-06-15T05:35:05.615Z,62.20
2018-06-15T05:37:33.371Z,61.30
2018-06-15T05:40:00.993Z,61.30
2018-06-15T05:42:28.824Z,60.60
2018-06-15T05:45:00.964Z,59.90
2018-06-15T05:49:58.124Z,59.20
2018-06-15T05:52:27.266Z,58.50
2018-06-15T05:54:56.242Z,59.50
2018-06-15T05:57:24.111Z,59.00
2018-06-15T06:02:28.107Z,58.30
2018-06-15T06:04:58.140Z,58.80
2018-06-15T06:07:27.085Z,58.30
2018-06-15T06:10:02.599Z,58.20
2018-06-15T06:12:32.934Z,58.80
2018-06-15T06:15:01.870Z,56.70
2018-06-15T06:17:30.436Z,56.20
2018-06-15T06:19:59.345Z,55.20
2018-06-15T06:22:29.142Z,55.20
2018-06-15T06:24:57.725Z,55.40
2018-06-15T06:27:26.051Z,55.90
2018-06-15T06:29:54.727Z,55.30
2018-06-15T06:35:07.250Z,54.70
2018-06-15T06:37:35.072Z,54.80
2018-06-15T06:40:04.753Z,54.90
2018-06-15T06:42:33.107Z,54.60
2018-06-15T06:45:01.693Z,54.20
2018-06-15T06:47:31.548Z,54.50
2018-06-15T06:50:05.492Z,54.60
2018-06-15T06:52:38.385Z,53.40
2018-06-15T06:55:07.964Z,53.40
2018-06-15T06:57:35.796Z,52.10
2018-06-15T07:00:09.561Z,52.30
2018-06-15T07:02:37.404Z,51.60
2018-06-15T07:05:05.706Z,52.10
2018-06-15T07:07:37.501Z,51.40
2018-06-15T07:10:06.988Z,51.70
2018-06-15T07:12:36.592Z,51.00
2018-06-15T07:15:05.875Z,51.10
2018-06-15T07:17:34.092Z,51.10
2018-06-15T07:20:02.548Z,50.60
2018-06-15T07:22:31.774Z,51.20
2018-06-15T07:25:00.024Z,50.50
2018-06-15T07:27:28.406Z,50.90
2018-06-15T07:29:56.006Z,50.50
2018-06-15T07:32:27.308Z,50.80
2018-06-15T07:34:55.925Z,50.50
2018-06-15T07:37:24.071Z,50.40
2018-06-15T07:39:51.650Z,49.70
2018-06-15T07:42:19.640Z,49.00
2018-06-15T07:44:47.229Z,49.30
2018-06-15T07:47:16.312Z,49.80
2018-06-15T07:49:44.298Z,49.50
2018-06-15T07:52:12.083Z,49.10
2018-06-15T07:54:39.999Z,48.90
2018-06-15T07:57:07.708Z,48.40
2018-06-15T07:59:35.417Z,48.80
2018-06-15T08:02:03.086Z,48.50
2018-06-15T08:04:30.853Z,48.80
2018-06-15T08:06:59.103Z,48.10
2018-06-15T08:09:26.877Z,48.10
2018-06-15T08:11:54.619Z,47.90
2018-06-15T08:14:22.515Z,46.20
2018-06-15T08:16:50.143Z,45.10
2018-06-15T08:19:17.743Z,48.60
2018-06-15T08:21:47.390Z,48.50
2018-06-15T08:24:15.716Z,47.40
2018-06-15T08:26:43.451Z,47.20
2018-06-15T08:29:11.131Z,46.80
2018-06-15T08:31:39.805Z,47.50
2018-06-15T08:34:07.704Z,47.20
2018-06-15T08:36:35.819Z,47.10
2018-06-15T08:39:06.395Z,47.30
2018-06-15T08:41:34.493Z,46.20
2018-06-15T08:44:02.382Z,45.70
2018-06-15T08:46:30.072Z,45.70
2018-06-15T08:48:57.710Z,45.40
2018-06-15T08:51:25.475Z,45.20
2018-06-15T08:53:53.964Z,44.10
2018-06-15T08:56:22.697Z,44.10
2018-06-15T08:58:51.325Z,44.30
2018-06-15T09:01:20.383Z,43.40
2018-06-15T09:03:48.266Z,43.20
2018-06-15T09:06:15.956Z,42.40
2018-06-15T09:08:43.899Z,43.00
2018-06-15T09:11:12.103Z,41.80
2018-06-15T09:13:39.714Z,42.60
2018-06-15T09:16:07.701Z,42.40
2018-06-15T09:18:35.327Z,42.30
2018-06-15T09:21:02.971Z,40.40
2018-06-15T09:23:30.956Z,40.70
2018-06-15T09:25:58.643Z,40.10
2018-06-15T09:28:26.271Z,40.50
2018-06-15T09:30:54.158Z,40.60
2018-06-15T09:33:21.728Z,39.10
2018-06-15T09:35:50.475Z,39.00
2018-06-15T09:38:18.049Z,37.60
2018-06-15T09:40:46.623Z,38.70
2018-06-15T09:43:14.330Z,37.40
2018-06-15T09:45:42.088Z,36.00
2018-06-15T09:48:09.753Z,36.90
2018-06-15T09:50:38.522Z,36.50
2018-06-15T09:53:06.424Z,37.10
2018-06-15T09:55:34.206Z,36.70
2018-06-15T09:58:01.762Z,36.30
2018-06-15T10:00:34.989Z,36.60
2018-06-15T10:03:06.381Z,34.50
2018-06-15T10:05:35.476Z,33.80
2018-06-15T10:08:03.675Z,35.50
2018-06-15T10:10:32.673Z,33.00
2018-06-15T10:13:01.128Z,33.50
2018-06-15T10:15:29.609Z,33.40
2018-06-15T10:17:57.747Z,32.60
2018-06-15T10:20:25.405Z,34.00
2018-06-15T10:22:54.746Z,34.40
2018-06-15T10:25:22.922Z,32.90
2018-06-15T10:27:53.557Z,32.40
2018-06-15T10:30:36.402Z,32.10
2018-06-15T10:33:06.024Z,33.00
2018-06-15T10:35:36.004Z,33.70
2018-06-15T10:38:07.655Z,32.90
2018-06-15T10:43:37.198Z,34.00
2018-06-15T10:46:05.930Z,33.80
2018-06-15T10:48:34.038Z,34.10
2018-06-15T10:51:04.153Z,34.20
2018-06-15T10:53:35.303Z,35.80
2018-06-15T10:56:11.272Z,34.90
2018-06-15T10:58:39.127Z,36.10
2018-06-15T11:01:07.086Z,34.70
2018-06-15T11:03:36.744Z,34.40
2018-06-15T11:06:08.088Z,34.20
2018-06-15T11:11:06.844Z,34.20
2018-06-15T11:13:38.495Z,33.50
2018-06-15T11:16:08.509Z,34.50
2018-06-15T11:18:37.353Z,34.30
2018-06-15T11:21:06.315Z,34.20
2018-06-15T11:23:37.562Z,34.70
2018-06-15T11:26:07.250Z,34.70
2018-06-15T11:28:35.152Z,34.50
2018-06-15T11:31:02.875Z,34.40
2018-06-15T11:33:30.666Z,35.00
2018-06-15T11:35:58.694Z,34.40
2018-06-15T11:38:26.260Z,34.90
2018-06-15T11:40:53.874Z,34.30
2018-06-15T11:43:21.423Z,34.40
2018-06-15T11:45:48.927Z,34.40
2018-06-15T11:48:16.506Z,34.50
2018-06-15T11:50:44.309Z,34.60
2018-06-15T11:53:12.134Z,35.30
2018-06-15T11:55:39.811Z,34.30
2018-06-15T11:58:07.838Z,34.40
2018-06-15T12:00:35.544Z,34.50
2018-06-15T12:03:03.587Z,34.50
2018-06-15T12:05:31.229Z,34.50
2018-06-15T12:07:58.937Z,35.00
2018-06-15T12:10:26.548Z,34.30
2018-06-15T12:12:54.483Z,34.50
2018-06-15T12:15:23.072Z,34.70
2018-06-15T12:17:51.489Z,34.20
2018-06-15T12:20:22.035Z,34.10
2018-06-15T12:22:49.914Z,34.20
2018-06-15T12:25:21.496Z,34.50
2018-06-15T12:27:50.378Z,33.40
2018-06-15T12:30:19.333Z,34.70
2018-06-15T12:32:48.112Z,33.60
2018-06-15T12:35:15.960Z,33.70
2018-06-15T12:37:45.361Z,32.90
2018-06-15T12:40:13.405Z,32.60
2018-06-15T12:42:41.601Z,32.50
2018-06-15T12:45:11.162Z,33.00
2018-06-15T12:47:39.066Z,32.00
2018-06-15T12:50:06.697Z,32.50
2018-06-15T12:52:34.417Z,31.70
2018-06-15T12:55:02.023Z,31.20
2018-06-15T12:57:29.692Z,31.80
2018-06-15T12:59:57.367Z,31.70
2018-06-15T13:02:30.177Z,32.20
2018-06-15T13:04:58.523Z,32.70
2018-06-15T13:07:26.204Z,32.00
2018-06-15T13:09:53.908Z,31.70
2018-06-15T13:12:21.635Z,31.90
2018-06-15T13:14:58.090Z,31.90
2018-06-15T13:17:25.996Z,32.70
2018-06-15T13:19:53.805Z,32.40
2018-06-15T13:22:22.416Z,32.90
2018-06-15T13:24:50.028Z,34.40
2018-06-15T13:27:18.346Z,33.80
2018-06-15T13:29:51.834Z,34.30
2018-06-15T13:32:19.532Z,34.80
2018-06-15T13:34:47.325Z,34.50
2018-06-15T13:37:15.110Z,33.50
2018-06-15T13:39:42.943Z,34.80
2018-06-15T13:42:11.266Z,32.80
2018-06-15T13:44:38.910Z,33.60
2018-06-15T13:47:06.663Z,34.70
2018-06-15T13:49:34.827Z,34.60
2018-06-15T13:52:02.497Z,34.00
2018-06-15T13:54:32.936Z,33.20
2018-06-15T13:57:03.676Z,32.80
2018-06-15T13:59:31.855Z,32.70
2018-06-15T14:02:00.227Z,30.80
2018-06-15T14:04:30.453Z,31.10
2018-06-15T14:07:04.647Z,31.80
2018-06-15T14:09:35.793Z,31.90
2018-06-15T14:12:04.786Z,32.30
2018-06-15T14:14:35.592Z,32.00
2018-06-15T14:17:04.397Z,32.60
2018-06-15T14:19:34.296Z,32.10
2018-06-15T14:22:03.555Z,32.20
2018-06-15T14:24:33.432Z,33.70
2018-06-15T14:27:02.495Z,33.50
2018-06-15T14:29:33.930Z,33.70
2018-06-15T14:35:01.608Z,32.30
2018-06-15T14:37:34.863Z,32.80
2018-06-15T14:40:04.781Z,33.50
2018-06-15T14:45:36.255Z,34.90
2018-06-15T14:50:37.544Z,32.00
2018-06-15T14:53:05.391Z,32.40
2018-06-15T14:55:35.138Z,32.50
2018-06-15T14:58:03.604Z,33.50
2018-06-15T15:03:34.905Z,33.00
2018-06-15T15:06:05.679Z,33.30
2018-06-15T15:08:35.213Z,34.20
2018-06-15T15:14:05.917Z,34.50
2018-06-15T15:16:34.861Z,34.50
2018-06-15T15:19:03.057Z,35.10
2018-06-15T15:21:35.292Z,34.50
2018-06-15T15:24:03.370Z,34.40
2018-06-15T15:26:33.139Z,35.10
2018-06-15T15:29:03.436Z,35.80
2018-06-15T15:31:33.907Z,36.20
2018-06-15T15:34:03.116Z,35.30
2018-06-15T15:36:32.534Z,34.30
2018-06-15T15:39:03.957Z,34.50
2018-06-15T15:44:50.944Z,34.50
2018-06-15T15:47:22.658Z,34.50
2018-06-15T15:49:51.834Z,35.10
2018-06-15T15:52:22.386Z,35.60
2018-06-15T15:54:52.118Z,35.70
2018-06-15T15:57:21.188Z,35.10
2018-06-15T15:59:51.290Z,34.90
2018-06-15T16:02:20.685Z,35.90
2018-06-15T16:04:49.898Z,35.70
2018-06-15T16:07:17.784Z,35.60
2018-06-15T16:09:47.165Z,34.50
2018-06-15T16:12:17.689Z,35.90
2018-06-15T16:14:49.018Z,35.90
2018-06-15T16:17:20.196Z,35.20
2018-06-15T16:19:48.388Z,35.30
2018-06-15T16:22:18.921Z,35.60
2018-06-15T16:24:53.006Z,36.40
2018-06-15T16:27:21.671Z,35.60
2018-06-15T16:29:51.352Z,35.70
2018-06-15T16:32:20.665Z,35.60
2018-06-15T16:34:50.722Z,34.90
2018-06-15T16:37:21.088Z,35.30
2018-06-15T16:39:50.877Z,35.10
2018-06-15T16:42:21.067Z,35.70
2018-06-15T16:44:50.390Z,35.60
2018-06-15T16:47:20.242Z,35.40
2018-06-15T16:49:49.272Z,35.50
2018-06-15T16:52:22.638Z,35.70
2018-06-15T16:54:51.492Z,36.30
2018-06-15T16:57:19.857Z,36.60
2018-06-15T16:59:48.276Z,36.10
2018-06-15T17:02:17.835Z,36.40
2018-06-15T17:04:51.034Z,36.30
2018-06-15T17:07:20.160Z,36.80
2018-06-15T17:09:49.399Z,37.30
2018-06-15T17:12:18.327Z,37.70
2018-06-15T17:14:46.168Z,38.40
2018-06-15T17:17:14.095Z,38.80
2018-06-15T17:19:42.103Z,39.00
2018-06-15T17:22:09.928Z,38.40
2018-06-15T17:24:38.103Z,38.30
2018-06-15T17:27:06.839Z,38.80
2018-06-15T17:29:35.089Z,39.10
2018-06-15T17:32:03.390Z,39.80
2018-06-15T17:34:31.375Z,40.10
2018-06-15T17:37:03.128Z,39.40
2018-06-15T17:39:31.123Z,40.40
2018-06-15T17:42:00.959Z,39.70
2018-06-15T17:44:31.702Z,40.00
2018-06-15T17:47:00.128Z,40.20
2018-06-15T17:49:28.652Z,41.00
2018-06-15T17:51:56.573Z,41.50
2018-06-15T17:54:24.411Z,40.30
2018-06-15T17:56:52.147Z,41.20
2018-06-15T17:59:19.874Z,41.30
2018-06-15T18:01:47.616Z,41.50
2018-06-15T18:04:15.896Z,42.10
2018-06-15T18:06:44.816Z,41.90
2018-06-15T18:09:13.923Z,42.00
2018-06-15T18:11:43.876Z,42.10
2018-06-15T18:14:12.495Z,41.90
2018-06-15T18:16:40.756Z,42.30
2018-06-15T18:19:09.167Z,42.10
2018-06-15T18:21:39.418Z,40.90
2018-06-15T18:24:08.205Z,41.00
2018-06-15T18:26:39.378Z,41.50
2018-06-15T18:29:08.665Z,41.30
2018-06-15T18:31:37.113Z,39.40
2018-06-15T18:34:07.187Z,39.30
2018-06-15T18:36:36.768Z,39.50
2018-06-15T18:39:08.075Z,39.20
2018-06-15T18:41:36.513Z,41.10
2018-06-15T18:44:05.324Z,43.30
2018-06-15T18:46:33.510Z,43.40
2018-06-15T18:49:01.678Z,43.30
2018-06-15T18:51:30.533Z,43.30
2018-06-15T18:53:59.385Z,43.20
2018-06-15T18:56:28.184Z,43.20
2018-06-15T18:58:56.390Z,44.00
2018-06-15T19:01:24.413Z,43.20
2018-06-15T19:03:52.700Z,43.80
2018-06-15T19:06:21.414Z,44.10
2018-06-15T19:08:49.931Z,44.40
2018-06-15T19:11:18.086Z,43.80
2018-06-15T19:13:46.487Z,44.50
2018-06-15T19:16:15.534Z,44.50
2018-06-15T19:18:43.823Z,44.30
2018-06-15T19:21:11.964Z,45.00
2018-06-15T19:23:40.236Z,45.40
2018-06-15T19:26:08.362Z,45.10
2018-06-15T19:28:36.973Z,45.30
2018-06-15T19:31:05.325Z,45.70
2018-06-15T19:33:34.176Z,46.60
2018-06-15T19:36:02.707Z,46.00
2018-06-15T19:38:33.092Z,46.30
2018-06-15T19:41:09.472Z,46.30
2018-06-15T19:43:39.406Z,44.80
2018-06-15T19:46:09.844Z,44.50
2018-06-15T19:48:39.544Z,44.30
2018-06-15T19:51:09.002Z,44.80
2018-06-15T19:53:39.504Z,45.30
2018-06-15T19:56:08.166Z,45.30
2018-06-15T19:58:37.924Z,45.10
2018-06-15T20:01:06.287Z,45.70
2018-06-15T20:03:34.633Z,46.70
2018-06-15T20:06:04.017Z,47.10
2018-06-15T20:08:35.376Z,48.40
2018-06-15T20:11:03.675Z,48.50
2018-06-15T20:13:34.608Z,48.50
2018-06-15T20:16:04.521Z,48.30
2018-06-15T20:18:35.824Z,47.40
2018-06-15T20:21:04.192Z,49.20
2018-06-15T20:26:00.659Z,50.50
2018-06-15T20:30:56.813Z,50.70
2018-06-15T20:33:25.089Z,51.50
2018-06-15T20:35:53.478Z,51.60
2018-06-15T20:38:22.548Z,51.00
2018-06-15T20:40:51.789Z,51.90
2018-06-15T20:43:20.076Z,51.90
2018-06-15T20:45:48.184Z,51.80
2018-06-15T20:48:16.399Z,51.80
2018-06-15T20:50:44.594Z,51.70
2018-06-15T20:53:12.701Z,52.40
2018-06-15T20:55:40.854Z,52.50
2018-06-15T20:58:09.683Z,53.10
2018-06-15T21:00:37.812Z,53.30
2018-06-15T21:03:06.005Z,53.80
2018-06-15T21:05:34.714Z,53.90
2018-06-15T21:08:02.764Z,54.20
2018-06-15T21:10:33.155Z,54.30
2018-06-15T21:13:01.221Z,54.40
2018-06-15T21:15:29.351Z,54.70
2018-06-15T21:17:57.393Z,54.80
2018-06-15T21:20:25.707Z,55.10
2018-06-15T21:22:54.506Z,55.40
2018-06-15T21:25:22.679Z,55.10
2018-06-15T21:27:51.537Z,55.40
2018-06-15T21:30:20.355Z,55.50
2018-06-15T21:32:48.535Z,55.70
2018-06-15T21:35:16.580Z,55.80
2018-06-15T21:37:44.936Z,56.00
2018-06-15T21:42:41.220Z,56.30
2018-06-15T21:45:09.776Z,56.70
2018-06-15T21:47:37.964Z,57.00
2018-06-15T21:50:06.851Z,57.00
2018-06-15T21:52:35.054Z,57.30
2018-06-15T21:55:03.179Z,57.70
2018-06-15T21:57:31.292Z,58.10
2018-06-15T21:59:59.642Z,58.60
2018-06-15T22:02:28.231Z,58.40
2018-06-15T22:04:56.554Z,58.20
2018-06-15T22:07:24.730Z,58.90
2018-06-15T22:09:53.026Z,59.00
2018-06-15T22:12:21.371Z,60.00
2018-06-15T22:14:51.115Z,60.00
2018-06-15T22:17:19.167Z,60.00
2018-06-15T22:19:48.940Z,60.00
2018-06-15T22:22:17.069Z,59.50
2018-06-15T22:24:45.183Z,60.00
2018-06-15T22:27:14.136Z,59.90
2018-06-15T22:29:42.971Z,60.00
2018-06-15T22:32:11.348Z,60.00
2018-06-15T22:34:39.758Z,60.00
2018-06-15T22:37:07.927Z,59.90
2018-06-15T22:39:35.968Z,59.90
2018-06-15T22:42:04.199Z,60.50
2018-06-15T22:44:32.318Z,60.00
2018-06-15T22:47:00.294Z,60.90
2018-06-15T22:49:28.460Z,61.10
2018-06-15T22:51:56.790Z,61.20
2018-06-15T22:54:24.903Z,61.50
2018-06-15T22:56:53.158Z,61.30
2018-06-15T22:59:21.304Z,61.60
2018-06-15T23:01:49.507Z,61.70
2018-06-15T23:04:18.373Z,62.10
2018-06-15T23:06:46.959Z,62.20
2018-06-15T23:09:17.530Z,62.30
2018-06-15T23:11:46.069Z,63.10
2018-06-15T23:14:14.322Z,62.70
2018-06-15T23:16:44.229Z,62.90
2018-06-15T23:19:12.973Z,62.60
2018-06-15T23:21:41.590Z,63.20
2018-06-15T23:24:10.541Z,62.60
2018-06-15T23:26:51.587Z,63.30
2018-06-15T23:29:20.939Z,63.70
2018-06-15T23:31:49.284Z,63.50
2018-06-15T23:34:17.499Z,63.60
2018-06-15T23:36:52.324Z,63.50
2018-06-15T23:39:22.757Z,64.10
2018-06-15T23:41:51.271Z,63.80
2018-06-15T23:44:20.668Z,64.50
2018-06-15T23:46:48.928Z,64.40
2018-06-15T23:49:17.207Z,64.60
2018-06-15T23:51:45.415Z,64.40
2018-06-15T23:54:13.639Z,64.40
2018-06-15T23:56:41.777Z,64.70
2018-06-15T23:59:10.049Z,64.00
